Time;durP1;ratioP1;P1;durP2;ratioP2;P2;SDS_P1;SDS_P2;PMS_P1;PMS_P2;Temp;Humidity;BMP_temperature;BMP_pressure;BME280_temperature;BME280_humidity;BME280_pressure;Samples;Min_cycle;Max_cycle;Signal;HPM_P1;HPM_P2
2022/03/02 00:00:57;;;;;;;27.45;23.35;;;;;;;4.44;67.87;102576.84;4856223;29;20102;-82
2022/03/02 00:03:30;;;;;;;28.73;22.90;;;;;;;4.40;67.89;102560.66;4840721;29;20030;-82
2022/03/02 00:06:27;;;;;;;29.20;23.05;;;;;;;4.67;67.68;102610.44;4847590;29;20045;-82
2022/03/02 00:09:56;;;;;;;29.40;23.60;;;;;;;4.51;67.74;102583.47;4822628;29;20033;-82
2022/03/02 00:12:24;;;;;;;29.27;23.30;;;;;;;4.65;67.54;102617.38;4817134;29;20426;-82
2022/03/02 00:14:57;;;;;;;27.08;23.10;;;;;;;4.32;67.72;102562.59;4822005;29;20030;-82
2022/03/02 00:17:31;;;;;;;28.42;22.85;;;;;;;4.26;67.80;102558.47;4839157;29;20468;-82
2022/03/02 00:20:01;;;;;;;30.05;23.80;;;;;;;4.22;68.37;102553.47;4837636;29;20046;-80
2022/03/02 00:22:42;;;;;;;30.15;23.70;;;;;;;4.29;68.85;102572.94;4838775;29;20037;-82
2022/03/02 00:25:38;;;;;;;;;;;;;;;;;;;;;
2022/03/02 00:28:54;;;;;;;28.17;23.40;;;;;;;4.49;67.92;102600.69;4863474;29;20514;-82
2022/03/02 00:31:37;;;;;;;31.75;23.77;;;;;;;4.25;67.96;102569.66;4836145;29;20052;-82
2022/03/02 00:34:13;;;;;;;30.77;24.33;;;;;;;4.16;67.61;102559.59;4847245;29;20546;-81
2022/03/02 00:37:12;;;;;;;28.75;23.65;;;;;;;4.21;67.85;102578.31;4863729;29;20044;-82
2022/03/02 00:39:40;;;;;;;30.23;24.38;;;;;;;4.07;68.35;102554.75;4855875;29;20528;-82
2022/03/02 00:42:29;;;;;;;;;;;;;;;;;;;;;
2022/03/02 00:45:11;;;;;;;30.55;24.13;;;;;;;4.03;68.86;102545.41;4848939;29;20502;-82
2022/03/02 00:47:42;;;;;;;29.80;24.40;;;;;;;3.96;68.63;102538.78;4862837;29;20117;-82
2022/03/02 00:50:17;;;;;;;32.33;24.38;;;;;;;4.00;69.07;102550.63;4827991;29;20069;-82
2022/03/02 00:52:46;;;;;;;30.55;24.35;;;;;;;4.16;69.12;102580.16;4845268;29;20029;-80
2022/03/02 00:55:30;;;;;;;32.03;24.77;;;;;;;4.02;68.89;102564.28;4855291;29;20048;-80
2022/03/02 00:57:58;;;;;;;31.02;25.23;;;;;;;3.86;69.04;102534.75;4846109;29;20044;-80
2022/03/02 01:00:36;;;;;;;32.35;24.30;;;;;;;3.95;68.48;102537.06;4855162;29;20516;-80
2022/03/02 01:03:10;;;;;;;29.40;23.77;;;;;;;3.90;68.58;102533.78;4852164;29;20034;-81
2022/03/02 01:06:08;;;;;;;28.77;24.20;;;;;;;3.91;68.34;102535.47;4841468;29;20050;-81
2022/03/02 01:08:50;;;;;;;30.98;24.00;;;;;;;4.02;67.93;102548.03;4845693;29;20037;-81
2022/03/02 01:11:20;;;;;;;30.35;24.17;;;;;;;3.96;67.41;102533.63;4844951;29;20041;-81
2022/03/02 01:13:53;;;;;;;33.50;25.02;;;;;;;3.92;67.77;102529.47;4843254;29;20117;-81
2022/03/02 01:16:32;;;;;;;31.25;23.85;;;;;;;3.95;68.10;102521.66;4850646;29;20030;-80
2022/03/02 01:19:13;;;;;;;35.20;24.35;;;;;;;3.97;67.81;102519.91;4846542;29;20045;-80
2022/03/02 01:21:55;;;;;;;31.85;24.98;;;;;;;3.89;68.03;102506.41;4850052;29;20121;-80
2022/03/02 01:28:47;;;;;;;32.63;24.42;;;;;;;3.99;67.89;102513.00;4864541;29;20048;-81
2022/03/02 01:31:56;;;;;;;32.70;24.48;;;;;;;4.03;68.17;102519.75;4863091;29;20037;-81
2022/03/02 01:34:29;;;;;;;33.33;24.73;;;;;;;3.96;68.15;102513.09;4838230;29;20081;-81
2022/03/02 01:37:16;;;;;;;32.60;24.83;;;;;;;4.07;68.61;102529.06;4842182;29;20050;-81
2022/03/02 01:39:53;;;;;;;34.20;24.73;;;;;;;4.04;68.47;102521.44;4833501;29;20140;-82
2022/03/02 01:42:28;;;;;;;31.52;24.45;;;;;;;3.99;68.45;102513.00;4859942;29;20029;-82
2022/03/02 01:45:09;;;;;;;32.25;25.83;;;;;;;4.01;68.76;102516.34;4849036;29;20042;-84
2022/03/02 01:47:41;;;;;;;33.38;25.85;;;;;;;4.13;68.60;102534.03;4848114;29;20029;-82
2022/03/02 01:50:26;;;;;;;33.28;25.63;;;;;;;3.94;68.44;102502.00;4841654;29;20383;-82
2022/03/02 01:53:00;;;;;;;33.78;25.13;;;;;;;3.89;68.47;102491.03;4858274;29;20717;-82
2022/03/02 01:55:32;;;;;;;31.27;26.00;;;;;;;4.13;67.94;102525.44;4859373;29;20032;-81
2022/03/02 01:58:41;;;;;;;32.22;25.50;;;;;;;4.04;67.98;102506.03;4848118;29;20475;-82
2022/03/02 02:01:16;;;;;;;32.05;24.88;;;;;;;3.89;67.95;102484.16;4822496;29;20070;-81
2022/03/02 02:04:01;;;;;;;31.95;26.67;;;;;;;3.97;68.39;102505.34;4840843;29;20034;-81
2022/03/02 02:09:31;;;;;;;;;;;;;;;4.37;68.20;102547.06;4841466;29;20034;-81
2022/03/02 02:12:01;;;;;;;33.08;26.05;;;;;;;3.90;67.98;102492.69;4857316;29;19924;-80
2022/03/02 02:14:35;;;;;;;33.80;27.55;;;;;;;3.97;68.24;102502.78;4857837;29;20064;-81
2022/03/02 02:17:42;;;;;;;34.67;27.50;;;;;;;3.84;68.59;102467.19;4839564;29;20406;-80
2022/03/02 02:20:23;;;;;;;33.90;26.25;;;;;;;3.85;68.71;102474.88;4847115;29;20098;-80
2022/03/02 02:23:11;;;;;;;33.72;26.65;;;;;;;4.18;68.46;102521.03;4840042;29;20049;-81
2022/03/02 02:25:45;;;;;;;33.17;27.80;;;;;;;4.22;68.67;102533.75;4835820;29;20033;-80
2022/03/02 02:31:12;;;;;;;36.40;27.33;;;;;;;4.01;68.71;102508.66;4826790;29;20041;-81
2022/03/02 02:33:40;;;;;;;33.40;26.70;;;;;;;3.93;68.43;102493.47;4823488;29;20289;-82
2022/03/02 02:36:25;;;;;;;35.28;26.45;;;;;;;3.93;68.24;102487.50;4842627;29;20033;-80
2022/03/02 02:39:35;;;;;;;32.65;25.77;;;;;;;4.05;67.81;102489.72;4839002;29;20410;-81
2022/03/02 02:42:28;;;;;;;31.98;25.85;;;;;;;3.76;68.29;102453.75;4824095;29;20054;-81
2022/03/02 02:45:14;;;;;;;33.35;25.50;;;;;;;3.93;68.25;102480.63;4824971;29;20038;-81
2022/03/02 02:47:45;;;;;;;30.88;25.52;;;;;;;3.93;67.58;102477.22;4828097;29;20053;-81
2022/03/02 02:50:33;;;;;;;33.65;26.75;;;;;;;4.10;68.05;102511.00;4857921;29;20065;-81
2022/03/02 02:53:21;;;;;;;;;;;;;;;;;;;;;
2022/03/02 02:56:07;;;;;;;32.75;27.00;;;;;;;3.61;68.13;102434.47;4845389;29;20394;-81
2022/03/02 02:58:58;;;;;;;35.40;26.65;;;;;;;3.78;68.52;102462.25;4832084;29;20033;-80
2022/03/02 03:01:29;;;;;;;34.45;27.40;;;;;;;3.60;68.22;102438.75;4837802;29;20053;-80
2022/03/02 03:04:06;;;;;;;33.72;25.88;;;;;;;3.61;68.75;102445.59;4839902;29;20026;-80
2022/03/02 03:06:45;;;;;;;32.47;26.23;;;;;;;3.96;68.74;102506.25;4853111;29;20029;-80
2022/03/02 03:09:33;;;;;;;;;;;;;;;;;;;;;
2022/03/02 03:12:09;;;;;;;33.67;26.27;;;;;;;3.75;69.38;102488.00;4839831;29;20054;-80
2022/03/02 03:14:35;;;;;;;31.20;25.92;;;;;;;3.55;69.12;102466.25;4840020;29;20109;-80
2022/03/02 03:17:11;;;;;;;34.90;27.40;;;;;;;3.49;69.49;102445.88;4856712;29;20120;-80
2022/03/02 03:19:55;;;;;;;33.53;26.80;;;;;;;3.49;69.14;102456.16;4837255;29;20045;-80
2022/03/02 03:22:26;;;;;;;34.88;27.13;;;;;;;3.35;69.45;102442.84;4839622;29;20113;-80
2022/03/02 03:25:04;;;;;;;34.60;26.77;;;;;;;3.33;69.33;102442.06;4840689;29;20033;-80
2022/03/02 03:27:41;;;;;;;34.65;27.75;;;;;;;3.39;69.56;102459.84;4821264;29;20472;-80
2022/03/02 03:30:39;;;;;;;33.65;27.33;;;;;;;3.36;69.73;102450.50;4825748;29;20041;-80
2022/03/02 03:33:36;;;;;;;36.07;27.93;;;;;;;3.20;69.31;102438.94;4841073;29;20026;-81
2022/03/02 03:36:07;;;;;;;35.15;28.40;;;;;;;3.20;69.05;102434.66;4831718;29;20038;-81
2022/03/02 03:38:40;;;;;;;37.22;27.73;;;;;;;3.33;69.14;102449.75;4849440;29;20045;-80
2022/03/02 03:41:22;;;;;;;33.35;26.70;;;;;;;3.39;68.68;102454.72;4857931;29;20029;-80
2022/03/02 03:43:57;;;;;;;36.42;28.70;;;;;;;3.55;68.83;102489.34;4857499;29;20061;-81
2022/03/02 03:46:27;;;;;;;34.13;27.10;;;;;;;3.16;69.08;102427.94;4845388;29;20041;-80
2022/03/02 03:48:56;;;;;;;33.05;26.73;;;;;;;3.09;69.67;102416.13;4853168;29;20033;-80
2022/03/02 03:51:26;;;;;;;;;;;;;;;3.65;69.03;102485.66;4837084;29;20041;-81
2022/03/02 03:53:57;;;;;;;34.67;27.58;;;;;;;3.23;69.74;102443.16;4854966;29;19920;-80
2022/03/02 03:56:25;;;;;;;35.08;28.05;;;;;;;3.19;69.13;102427.84;4829536;29;20181;-80
2022/03/02 03:59:04;;;;;;;;;;;;;;;;;;;;;
2022/03/02 04:01:32;;;;;;;39.22;29.65;;;;;;;3.17;69.77;102419.34;4856511;29;20041;-82
2022/03/02 04:04:03;;;;;;;38.03;27.97;;;;;;;3.07;69.64;102401.69;4840145;29;20050;-80
2022/03/02 04:06:31;;;;;;;36.50;30.88;;;;;;;3.15;70.13;102416.00;4850905;29;20095;-80
2022/03/02 04:08:59;;;;;;;37.58;30.08;;;;;;;3.49;70.47;102471.53;4841381;29;20126;-80
2022/03/02 04:11:42;;;;;;;36.22;28.83;;;;;;;3.09;70.19;102405.88;4856925;29;20089;-80
2022/03/02 04:14:13;;;;;;;36.85;28.48;;;;;;;3.09;70.78;102400.75;4857068;29;20045;-80
2022/03/02 04:16:50;;;;;;;36.63;29.23;;;;;;;3.16;70.35;102412.56;4843145;29;20038;-80
2022/03/02 04:19:19;;;;;;;36.10;28.85;;;;;;;3.22;70.36;102416.69;4822553;29;20050;-80
2022/03/02 04:21:44;;;;;;;37.58;30.23;;;;;;;3.22;70.05;102406.44;4854744;29;20079;-80
2022/03/02 04:24:12;;;;;;;38.42;29.50;;;;;;;3.25;70.02;102410.63;4840133;29;20472;-80
2022/03/02 04:26:43;;;;;;;38.25;30.13;;;;;;;3.25;70.44;102405.50;4856795;29;20033;-80
2022/03/02 04:29:10;;;;;;;36.63;29.15;;;;;;;3.10;70.09;102391.34;4857164;29;20033;-80
2022/03/02 04:31:46;;;;;;;36.25;28.83;;;;;;;3.23;70.25;102399.56;4843638;29;20028;-80
2022/03/02 04:34:20;;;;;;;35.30;28.48;;;;;;;3.20;70.49;102403.88;4857284;29;20074;-80
2022/03/02 04:36:56;;;;;;;38.47;29.80;;;;;;;3.10;70.58;102387.06;4857664;29;20498;-80
2022/03/02 04:39:34;;;;;;;;;;;;;;;;;;;;;
2022/03/02 04:42:43;;;;;;;38.88;29.25;;;;;;;3.22;70.80;102400.47;4843881;29;20034;-80
2022/03/02 04:45:41;;;;;;;37.15;29.92;;;;;;;3.28;70.58;102420.81;4840586;29;20041;-80
2022/03/02 04:48:14;;;;;;;36.17;28.88;;;;;;;3.14;70.23;102388.66;4856381;29;20560;-80
2022/03/02 04:51:11;;;;;;;37.95;29.73;;;;;;;3.23;70.24;102407.28;4855462;29;20492;-80
2022/03/02 04:53:45;;;;;;;38.28;30.27;;;;;;;3.19;70.64;102401.38;4841208;29;20561;-80
2022/03/02 04:56:13;;;;;;;36.72;29.35;;;;;;;3.07;70.69;102387.13;4826581;29;20034;-80
2022/03/02 04:58:51;;;;;;;35.70;29.60;;;;;;;3.20;70.48;102409.00;4847058;29;20044;-80
2022/03/02 05:01:32;;;;;;;36.42;29.33;;;;;;;3.15;70.45;102400.63;4846194;29;20068;-80
2022/03/02 05:04:08;;;;;;;36.13;29.85;;;;;;;3.23;70.17;102412.41;4851402;29;20411;-80
2022/03/02 05:06:38;;;;;;;36.35;28.73;;;;;;;3.17;70.29;102388.59;4852700;29;20032;-80
2022/03/02 05:09:30;;;;;;;34.88;28.73;;;;;;;3.03;70.43;102362.44;4839130;29;20476;-80
2022/03/02 05:12:09;;;;;;;;;;;;;;;;;;;;;
2022/03/02 05:14:45;;;;;;;38.67;29.35;;;;;;;3.09;70.26;102398.19;4852206;29;20382;-80
2022/03/02 05:17:16;;;;;;;35.90;28.20;;;;;;;3.28;69.88;102425.94;4856341;29;20057;-80
2022/03/02 05:19:43;;;;;;;37.03;29.52;;;;;;;3.12;69.79;102417.78;4841724;29;20038;-80
2022/03/02 05:22:11;;;;;;;38.00;30.50;;;;;;;3.19;70.57;102432.97;4855367;29;20475;-80
2022/03/02 05:24:48;;;;;;;36.30;30.08;;;;;;;2.77;70.31;102367.41;4842431;29;20078;-81
2022/03/02 05:27:19;;;;;;;36.53;29.13;;;;;;;2.84;70.30;102390.25;4860461;29;20393;-80
2022/03/02 05:29:45;;;;;;;36.83;29.90;;;;;;;2.66;70.48;102371.06;4842916;29;20097;-81
2022/03/02 05:32:10;;;;;;;34.38;28.10;;;;;;;2.69;70.82;102370.13;4840431;29;20487;-80
2022/03/02 05:34:39;;;;;;;37.42;29.83;;;;;;;2.87;70.79;102402.19;4841236;29;20368;-80
2022/03/02 05:37:07;;;;;;;37.78;29.52;;;;;;;2.72;71.30;102384.59;4841776;29;20040;-80
2022/03/02 05:39:33;;;;;;;36.72;30.63;;;;;;;2.70;70.85;102371.00;4854537;29;20029;-80
2022/03/02 05:42:14;;;;;;;36.85;29.48;;;;;;;2.82;70.87;102397.16;4859589;29;20032;-80
2022/03/02 05:44:58;;;;;;;36.38;29.77;;;;;;;2.59;71.03;102366.13;4841362;29;20119;-81
2022/03/02 05:47:32;;;;;;;36.20;29.52;;;;;;;2.60;71.57;102376.31;4820678;29;20038;-81
2022/03/02 05:50:17;;;;;;;37.30;30.25;;;;;;;2.46;71.63;102352.75;4840708;29;20033;-80
2022/03/02 05:52:55;;;;;;;39.97;30.55;;;;;;;2.43;71.32;102360.50;4841586;29;20486;-80
2022/03/02 05:55:38;;;;;;;37.28;30.83;;;;;;;2.64;71.78;102398.44;4854936;29;20032;-80
2022/03/02 05:58:15;;;;;;;38.97;30.85;;;;;;;2.79;72.04;102427.13;4841369;29;20030;-81
2022/03/02 06:01:02;;;;;;;;;;;;;;;;;;;;;
2022/03/02 06:03:40;;;;;;;38.58;31.08;;;;;;;2.51;72.67;102391.06;4858912;29;20033;-82
2022/03/02 06:06:08;;;;;;;39.72;32.35;;;;;;;2.30;72.38;102359.13;4857638;29;20033;-79
2022/03/02 06:08:41;;;;;;;37.90;31.80;;;;;;;2.42;72.72;102381.88;4857280;29;20037;-80
2022/03/02 06:11:10;;;;;;;36.95;31.17;;;;;;;2.46;72.63;102393.72;4841177;29;20117;-80
2022/03/02 06:13:39;;;;;;;36.63;30.77;;;;;;;2.25;72.76;102358.38;4840890;29;20034;-81
2022/03/02 06:16:08;;;;;;;40.00;31.90;;;;;;;2.26;72.79;102365.16;4851835;29;20056;-83
2022/03/02 06:18:33;;;;;;;38.92;31.30;;;;;;;2.33;72.77;102387.19;4848107;29;20059;-80
2022/03/02 06:21:03;;;;;;;38.05;31.17;;;;;;;2.42;73.04;102406.66;4847243;29;20438;-80
2022/03/02 06:23:29;;;;;;;38.42;31.38;;;;;;;2.18;72.82;102372.16;4858713;29;20033;-80
2022/03/02 06:25:55;;;;;;;39.03;31.65;;;;;;;2.08;73.57;102372.38;4857040;29;20041;-80
2022/03/02 06:28:24;;;;;;;38.65;32.15;;;;;;;2.32;73.71;102411.13;4841595;29;20394;-80
2022/03/02 06:30:49;;;;;;;38.03;31.17;;;;;;;2.30;73.55;102402.63;4858198;29;20034;-80
2022/03/02 06:33:23;;;;;;;37.85;31.52;;;;;;;2.32;73.71;102421.34;4855322;29;20024;-80
2022/03/02 06:35:50;;;;;;;41.70;32.00;;;;;;;2.09;73.59;102384.28;4839949;29;20033;-80
2022/03/02 06:38:19;;;;;;;38.47;31.48;;;;;;;2.30;73.42;102418.00;4840893;29;20121;-81
2022/03/02 06:41:00;;;;;;;41.22;33.03;;;;;;;2.48;74.26;102453.44;4839600;29;20113;-80
2022/03/02 06:43:31;;;;;;;40.00;33.28;;;;;;;2.24;74.19;102413.84;4839431;29;20094;-81
2022/03/02 06:46:51;;;;;;;38.38;32.33;;;;;;;2.11;73.97;102387.66;4848295;29;20063;-80
2022/03/02 06:49:50;;;;;;;40.22;32.10;;;;;;;2.23;73.95;102421.53;4830472;29;20495;-79
2022/03/02 06:52:20;;;;;;;37.53;31.13;;;;;;;2.20;73.99;102406.25;4824938;29;20425;-79
2022/03/02 06:54:51;;;;;;;39.17;31.83;;;;;;;2.05;74.30;102390.34;4839615;29;20386;-80
2022/03/02 06:57:24;;;;;;;42.10;31.67;;;;;;;2.07;74.15;102396.28;4840711;29;20034;-80
2022/03/02 07:00:30;;;;;;;38.97;31.23;;;;;;;2.46;74.02;102447.50;4834067;29;20054;-80
2022/03/02 07:03:18;;;;;;;39.47;31.65;;;;;;;2.23;74.48;102411.31;4792216;29;20546;-81
2022/03/02 07:06:01;;;;;;;38.50;31.73;;;;;;;2.42;74.62;102448.44;4780204;29;20047;-80
2022/03/02 07:09:48;;;;;;;;;;;;;;;;;;;;;
2022/03/02 07:12:26;;;;;;;;;;;;;;;;;;;;;
2022/03/02 07:15:26;;;;;;;;;;;;;;;;;;;;;
2022/03/02 07:24:47;;;;;;;;;;;;;;;;;;;;;
2022/03/02 07:27:48;;;;;;;39.90;32.72;;;;;;;2.23;74.93;102385.69;4743625;30;20056;-80
2022/03/02 07:30:13;;;;;;;38.55;31.90;;;;;;;2.30;74.79;102383.00;4738857;30;20083;-81
2022/03/02 07:32:43;;;;;;;37.65;31.38;;;;;;;2.49;75.30;102419.25;4726786;30;20070;-81
2022/03/02 07:35:09;;;;;;;41.55;32.35;;;;;;;2.33;75.32;102387.19;4760524;30;20051;-81
2022/03/02 07:37:47;;;;;;;39.10;31.50;;;;;;;2.50;75.33;102400.47;4763279;30;20055;-81
2022/03/02 07:40:15;;;;;;;41.58;32.22;;;;;;;2.66;75.13;102421.44;4764442;30;20040;-82
2022/03/02 07:42:44;;;;;;;39.35;32.38;;;;;;;2.52;75.55;102403.81;4748535;30;20036;-81
2022/03/02 07:45:10;;;;;;;38.30;31.75;;;;;;;2.58;75.16;102403.72;4762856;30;20516;-80
2022/03/02 07:47:38;;;;;;;39.65;32.10;;;;;;;2.59;74.65;102405.38;4758614;30;20036;-81
2022/03/02 07:50:07;;;;;;;38.45;31.48;;;;;;;2.67;74.36;102411.16;4763435;30;20063;-82
2022/03/02 07:52:38;;;;;;;39.10;31.92;;;;;;;2.66;74.22;102394.09;4763781;30;20054;-81
2022/03/02 07:55:10;;;;;;;39.63;31.75;;;;;;;2.65;74.73;102377.06;4762777;30;20068;-82
2022/03/02 07:57:37;;;;;;;37.97;31.67;;;;;;;2.83;73.90;102403.13;4785724;29;20050;-82
2022/03/02 08:00:09;;;;;;;40.70;30.85;;;;;;;2.75;73.82;102385.34;4809903;29;20074;-82
2022/03/02 08:02:37;;;;;;;36.90;29.30;;;;;;;2.86;72.63;102390.22;4821921;29;20069;-82
2022/03/02 08:05:10;;;;;;;38.47;30.70;;;;;;;2.80;72.86;102382.69;4838194;29;20065;-81
2022/03/02 08:07:42;;;;;;;37.85;30.45;;;;;;;3.10;72.77;102430.66;4837583;29;20391;-82
2022/03/02 08:10:16;;;;;;;38.45;30.70;;;;;;;2.93;72.01;102384.09;4838627;29;20030;-80
2022/03/02 08:12:57;;;;;;;37.90;29.73;;;;;;;3.16;73.32;102412.56;4838246;29;20479;-81
2022/03/02 08:15:24;;;;;;;37.42;30.10;;;;;;;3.03;72.69;102377.84;4838274;29;20034;-82
2022/03/02 08:17:59;;;;;;;37.55;29.98;;;;;;;3.09;72.27;102382.81;4838238;29;20154;-82
2022/03/02 08:20:27;;;;;;;35.45;28.50;;;;;;;3.20;71.42;102391.06;4838194;29;20720;-81
2022/03/02 08:23:15;;;;;;;35.92;28.58;;;;;;;3.20;70.96;102383.38;4838286;29;20030;-82
2022/03/02 08:25:50;;;;;;;38.08;28.15;;;;;;;3.44;69.60;102411.81;4845766;29;20492;-81
2022/03/02 08:28:27;;;;;;;32.80;27.10;;;;;;;3.62;69.60;102429.31;4841625;29;20021;-82
2022/03/02 08:31:20;;;;;;;36.63;27.63;;;;;;;3.83;70.18;102447.56;4835791;29;20037;-80
2022/03/02 08:33:48;;;;;;;33.13;26.13;;;;;;;3.66;69.90;102406.97;4822698;29;20460;-81
2022/03/02 08:36:40;;;;;;;33.58;27.17;;;;;;;3.57;69.19;102377.28;4838211;29;20045;-80
2022/03/02 08:39:36;;;;;;;34.00;25.77;;;;;;;3.76;68.50;102402.44;4838389;29;20030;-81
2022/03/02 08:42:07;;;;;;;32.72;25.63;;;;;;;3.86;68.07;102393.59;4836235;29;20049;-80
2022/03/02 08:44:47;;;;;;;31.45;24.88;;;;;;;3.97;67.51;102396.69;4820223;29;20063;-81
2022/03/02 08:47:13;;;;;;;33.03;24.27;;;;;;;3.93;66.93;102377.13;4850045;29;20046;-82
2022/03/02 08:49:39;;;;;;;30.98;22.42;;;;;;;4.21;65.23;102410.53;4858677;29;20075;-80
2022/03/02 08:52:05;;;;;;;27.20;21.17;;;;;;;4.16;64.54;102390.13;4860163;29;20482;-80
2022/03/02 08:54:40;;;;;;;29.10;21.23;;;;;;;4.43;63.85;102405.59;4851209;29;20428;-81
2022/03/02 08:57:06;;;;;;;27.92;21.10;;;;;;;4.51;63.04;102413.91;4841478;29;20038;-82
2022/03/02 08:59:35;;;;;;;25.05;18.65;;;;;;;4.64;61.16;102415.19;4842197;29;20113;-81
2022/03/02 09:02:05;;;;;;;23.80;18.48;;;;;;;4.64;59.16;102428.03;4841597;29;20174;-80
2022/03/02 09:04:33;;;;;;;23.85;17.85;;;;;;;4.30;60.40;102369.19;4841803;29;20038;-82
2022/03/02 09:07:01;;;;;;;21.85;16.58;;;;;;;4.40;58.38;102380.00;4823499;29;20112;-80
2022/03/02 09:09:26;;;;;;;21.80;17.15;;;;;;;4.45;59.28;102373.00;4846885;29;20036;-80
2022/03/02 09:11:52;;;;;;;23.88;17.60;;;;;;;4.47;59.16;102364.38;4848232;29;20037;-81
2022/03/02 09:14:18;;;;;;;24.98;16.50;;;;;;;4.59;58.25;102378.56;4833917;29;20068;-79
2022/03/02 09:16:44;;;;;;;22.65;16.38;;;;;;;4.61;57.61;102363.91;4829421;29;20353;-80
2022/03/02 09:19:10;;;;;;;21.27;17.30;;;;;;;4.89;58.65;102409.31;4823210;29;20113;-80
2022/03/02 09:21:36;;;;;;;22.52;16.70;;;;;;;4.75;56.66;102382.28;4837092;29;20038;-81
2022/03/02 09:24:02;;;;;;;22.55;16.00;;;;;;;4.89;56.47;102399.00;4858011;29;20040;-81
2022/03/02 09:26:27;;;;;;;23.05;17.58;;;;;;;4.89;57.30;102399.00;4840534;29;20044;-82
2022/03/02 09:28:53;;;;;;;24.00;18.23;;;;;;;4.86;57.28;102386.25;4850855;29;20583;-79
2022/03/02 09:31:21;;;;;;;21.00;15.98;;;;;;;5.12;57.37;102413.69;4859329;29;20025;-81
2022/03/02 09:33:58;;;;;;;23.80;16.70;;;;;;;5.21;58.05;102416.78;4859359;29;20361;-81
2022/03/02 09:36:24;;;;;;;23.58;17.23;;;;;;;5.27;57.63;102416.56;4842935;29;20286;-82
2022/03/02 09:38:51;;;;;;;20.48;15.10;;;;;;;5.36;56.01;102410.28;4822870;29;20075;-82
2022/03/02 09:41:38;;;;;;;20.15;15.30;;;;;;;5.46;55.35;102409.06;4840649;29;20044;-81
2022/03/02 09:44:05;;;;;;;22.58;15.45;;;;;;;5.54;55.09;102403.66;4857367;29;20153;-82
2022/03/02 09:46:37;;;;;;;21.17;16.98;;;;;;;5.62;56.20;102404.25;4852122;29;20105;-82
2022/03/02 09:49:08;;;;;;;26.77;20.35;;;;;;;5.63;57.75;102390.47;4841148;29;20482;-82
2022/03/02 09:51:35;;;;;;;27.02;21.85;;;;;;;5.77;57.69;102403.66;4840947;29;20077;-82
2022/03/02 09:54:02;;;;;;;26.85;20.50;;;;;;;5.75;57.29;102391.75;4841996;29;20051;-82
2022/03/02 09:56:31;;;;;;;28.73;21.42;;;;;;;5.81;58.20;102386.38;4844415;29;20189;-82
2022/03/02 09:58:57;;;;;;;;;;;;;;;5.98;60.28;102408.97;4857733;29;20505;-82
2022/03/02 10:01:24;;;;;;;26.88;21.88;;;;;;;6.00;57.07;102386.56;4858325;29;19920;-81
2022/03/02 10:03:52;;;;;;;26.02;19.20;;;;;;;6.06;56.07;102401.78;4843791;29;20034;-82
2022/03/02 10:06:19;;;;;;;25.10;18.85;;;;;;;6.07;55.41;102394.00;4844104;29;20061;-81
2022/03/02 10:08:51;;;;;;;24.65;19.50;;;;;;;6.19;56.49;102397.84;4856512;29;20037;-82
2022/03/02 10:11:23;;;;;;;26.60;19.92;;;;;;;6.24;56.72;102388.22;4840004;29;20464;-82
2022/03/02 10:13:50;;;;;;;24.48;19.85;;;;;;;6.23;55.83;102383.97;4840119;29;20026;-82
2022/03/02 10:16:22;;;;;;;25.70;19.73;;;;;;;6.37;55.29;102386.03;4857209;29;20029;-81
2022/03/02 10:18:58;;;;;;;25.15;19.27;;;;;;;6.44;55.29;102387.44;4840734;29;20038;-82
2022/03/02 10:21:29;;;;;;;26.25;19.88;;;;;;;6.47;54.13;102378.75;4824966;29;20471;-82
2022/03/02 10:24:04;;;;;;;24.20;19.13;;;;;;;6.49;56.37;102370.06;4838091;29;20057;-82
2022/03/02 10:26:49;;;;;;;23.13;18.38;;;;;;;6.59;53.87;102378.25;4840209;29;20112;-82
2022/03/02 10:29:40;;;;;;;23.40;17.67;;;;;;;6.70;53.57;102377.81;4852216;29;20038;-82
2022/03/02 10:32:08;;;;;;;23.77;17.80;;;;;;;6.79;53.41;102388.63;4858943;29;20145;-82
2022/03/02 10:34:44;;;;;;;22.15;17.17;;;;;;;6.74;51.83;102380.22;4858902;29;20108;-82
2022/03/02 10:37:19;;;;;;;22.55;17.23;;;;;;;6.77;53.17;102374.97;4857748;29;20065;-82
2022/03/02 10:39:57;;;;;;;26.90;18.40;;;;;;;6.84;50.53;102383.28;4859039;29;20085;-82
2022/03/02 10:42:26;;;;;;;23.40;18.38;;;;;;;6.91;52.31;102377.78;4857077;29;20036;-81
2022/03/02 10:45:04;;;;;;;23.05;17.25;;;;;;;7.00;52.03;102386.06;4804898;29;20045;-82
2022/03/02 10:47:31;;;;;;;26.73;18.95;;;;;;;7.06;52.80;102380.66;4844548;29;20037;-80
2022/03/02 10:50:02;;;;;;;24.90;18.38;;;;;;;7.12;51.51;102386.41;4857112;29;20032;-82
2022/03/02 10:52:31;;;;;;;24.50;18.60;;;;;;;7.22;52.29;102381.66;4858227;29;20086;-79
2022/03/02 10:54:57;;;;;;;25.45;18.40;;;;;;;7.27;52.27;102376.31;4856894;29;20094;-82
2022/03/02 10:57:27;;;;;;;22.33;17.63;;;;;;;7.25;49.85;102368.63;4856604;29;20037;-82
2022/03/02 10:59:54;;;;;;;26.48;19.17;;;;;;;7.29;51.72;102372.78;4840129;29;20541;-82
2022/03/02 11:02:23;;;;;;;23.70;18.13;;;;;;;7.40;50.90;102380.06;4821621;29;20412;-83
2022/03/02 11:04:48;;;;;;;23.95;18.90;;;;;;;7.38;50.54;102366.38;4838138;29;20437;-82
2022/03/02 11:07:16;;;;;;;24.05;18.92;;;;;;;7.40;50.24;102365.41;4839989;29;20379;-83
2022/03/02 11:09:47;;;;;;;24.95;18.23;;;;;;;7.48;49.67;102371.97;4839461;29;20036;-82
2022/03/02 11:12:13;;;;;;;25.30;18.90;;;;;;;7.44;49.95;102355.75;4841791;29;20037;-82
2022/03/02 11:14:56;;;;;;;24.33;18.98;;;;;;;7.58;52.91;102362.91;4852717;29;20034;-83
2022/03/02 11:17:22;;;;;;;25.38;18.88;;;;;;;7.62;51.79;102351.53;4840242;29;20060;-83
2022/03/02 11:19:48;;;;;;;25.52;18.52;;;;;;;7.68;49.27;102365.03;4843805;29;20026;-83
2022/03/02 11:22:16;;;;;;;24.30;18.73;;;;;;;7.64;49.88;102347.16;4857766;29;20117;-83
2022/03/02 11:24:42;;;;;;;24.02;18.17;;;;;;;7.68;49.73;102348.66;4856438;29;20459;-82
2022/03/02 11:27:08;;;;;;;23.85;18.15;;;;;;;7.74;50.81;102348.38;4841516;29;20550;-83
2022/03/02 11:29:33;;;;;;;23.55;18.05;;;;;;;7.76;49.51;102341.44;4850976;29;20451;-81
2022/03/02 11:32:10;;;;;;;22.65;17.77;;;;;;;7.81;49.51;102352.41;4839730;29;20040;-83
2022/03/02 11:34:42;;;;;;;21.95;16.88;;;;;;;7.81;50.25;102349.81;4839627;29;20038;-81
2022/03/02 11:37:08;;;;;;;24.52;18.10;;;;;;;7.79;48.96;102338.69;4856373;29;20044;-82
2022/03/02 11:39:42;;;;;;;21.20;16.95;;;;;;;7.78;48.88;102339.59;4837978;29;20034;-83
2022/03/02 11:42:08;;;;;;;22.77;17.77;;;;;;;7.90;49.61;102344.19;4839006;29;20062;-83
2022/03/02 11:44:39;;;;;;;23.80;17.95;;;;;;;7.94;49.32;102340.59;4856662;29;20060;-82
2022/03/02 11:47:10;;;;;;;25.42;18.55;;;;;;;7.97;49.69;102332.69;4838825;29;20030;-82
2022/03/02 11:49:43;;;;;;;23.75;17.85;;;;;;;8.01;50.46;102325.63;4827609;29;20194;-82
2022/03/02 11:52:14;;;;;;;23.38;17.65;;;;;;;8.02;49.37;102323.88;4819834;29;20442;-82
2022/03/02 11:54:44;;;;;;;22.27;17.92;;;;;;;8.17;50.11;102328.34;4842040;29;20040;-83
2022/03/02 11:57:09;;;;;;;21.98;16.33;;;;;;;8.13;48.25;102308.72;4849714;29;20399;-82
2022/03/02 11:59:37;;;;;;;24.88;17.45;;;;;;;8.22;48.26;102313.44;4839346;29;20037;-79
2022/03/02 12:02:13;;;;;;;21.05;16.92;;;;;;;8.25;47.53;102308.13;4826668;29;20132;-82
2022/03/02 12:04:39;;;;;;;22.92;17.42;;;;;;;8.19;48.70;102298.91;4839543;29;20493;-82
2022/03/02 12:07:06;;;;;;;20.33;16.30;;;;;;;8.23;48.32;102304.78;4837826;29;20049;-82
2022/03/02 12:09:32;;;;;;;22.77;17.70;;;;;;;8.26;48.49;102299.47;4821976;29;20030;-82
2022/03/02 12:12:20;;;;;;;21.55;16.80;;;;;;;8.28;47.91;102297.66;4837643;29;20057;-82
2022/03/02 12:15:01;;;;;;;23.42;17.02;;;;;;;8.29;47.63;102294.16;4821523;29;20029;-83
2022/03/02 12:17:30;;;;;;;20.98;16.83;;;;;;;8.34;47.51;102292.19;4836231;29;20116;-82
2022/03/02 12:20:02;;;;;;;22.13;16.50;;;;;;;8.38;47.38;102285.97;4839407;29;20025;-83
2022/03/02 12:22:39;;;;;;;21.67;15.93;;;;;;;8.48;48.32;102282.00;4837651;29;20053;-82
2022/03/02 12:25:08;;;;;;;21.35;16.23;;;;;;;8.56;48.97;102270.47;4835778;29;20026;-83
2022/03/02 12:27:33;;;;;;;;;;;;;;;8.67;48.67;102279.38;4834149;29;20045;-81
2022/03/02 12:30:05;;;;;;;21.75;15.40;;;;;;;8.69;45.27;102272.34;4835055;29;19924;-82